sensor_id;sensor_type;location;lat;lon;timestamp;pressure;altitude;pressure_sealevel;temperature;humidity
60240;BME280;46102;39.012;-7.064;2022-08-19T00:00:48;98369.97;;;25.57;21.74
60240;BME280;46102;39.012;-7.064;2022-08-19T00:02:50;98368.41;;;25.52;21.65
60240;BME280;46102;39.012;-7.064;2022-08-19T00:04:51;98361.75;;;25.43;21.72
60240;BME280;46102;39.012;-7.064;2022-08-19T00:06:55;98368.25;;;25.36;21.87
60240;BME280;46102;39.012;-7.064;2022-08-19T00:08:57;98367.06;;;25.33;22.03
60240;BME280;46102;39.012;-7.064;2022-08-19T00:10:58;98362.63;;;25.36;22.10
60240;BME280;46102;39.012;-7.064;2022-08-19T00:12:59;98365.94;;;25.27;22.15
60240;BME280;46102;39.012;-7.064;2022-08-19T00:15:00;98369.53;;;25.28;22.61
60240;BME280;46102;39.012;-7.064;2022-08-19T00:17:02;98365.56;;;25.25;22.30
60240;BME280;46102;39.012;-7.064;2022-08-19T00:19:03;98363.56;;;25.26;22.32
60240;BME280;46102;39.012;-7.064;2022-08-19T00:21:04;98366.03;;;25.20;22.89
60240;BME280;46102;39.012;-7.064;2022-08-19T00:23:09;98370.00;;;25.23;22.75
60240;BME280;46102;39.012;-7.064;2022-08-19T00:25:10;98370.00;;;25.23;22.70
60240;BME280;46102;39.012;-7.064;2022-08-19T00:27:11;98370.09;;;25.12;22.91
60240;BME280;46102;39.012;-7.064;2022-08-19T00:29:14;98368.94;;;25.09;22.94
60240;BME280;46102;39.012;-7.064;2022-08-19T00:31:15;98362.19;;;25.03;23.21
60240;BME280;46102;39.012;-7.064;2022-08-19T00:33:16;98366.63;;;25.01;23.70
60240;BME280;46102;39.012;-7.064;2022-08-19T00:35:17;98363.88;;;24.97;23.58
60240;BME280;46102;39.012;-7.064;2022-08-19T00:37:20;98363.88;;;24.97;23.76
60240;BME280;46102;39.012;-7.064;2022-08-19T00:39:23;98359.88;;;24.94;23.88
60240;BME280;46102;39.012;-7.064;2022-08-19T00:41:24;98366.31;;;24.95;23.78
60240;BME280;46102;39.012;-7.064;2022-08-19T00:43:26;98363.16;;;24.89;23.75
60240;BME280;46102;39.012;-7.064;2022-08-19T00:45:28;98365.13;;;24.92;24.05
60240;BME280;46102;39.012;-7.064;2022-08-19T00:47:31;98362.69;;;24.94;24.15
60240;BME280;46102;39.012;-7.064;2022-08-19T00:49:36;98361.53;;;24.92;24.51
60240;BME280;46102;39.012;-7.064;2022-08-19T00:51:38;98362.78;;;24.87;24.48
60240;BME280;46102;39.012;-7.064;2022-08-19T00:53:39;98358.34;;;24.90;24.50
60240;BME280;46102;39.012;-7.064;2022-08-19T00:55:42;98359.59;;;24.85;24.72
60240;BME280;46102;39.012;-7.064;2022-08-19T00:57:51;98370.81;;;24.85;24.50
60240;BME280;46102;39.012;-7.064;2022-08-19T00:59:56;98362.00;;;24.83;24.76
60240;BME280;46102;39.012;-7.064;2022-08-19T01:01:58;98368.09;;;24.78;24.77
60240;BME280;46102;39.012;-7.064;2022-08-19T01:03:59;98368.50;;;24.77;25.16
60240;BME280;46102;39.012;-7.064;2022-08-19T01:06:00;98365.34;;;24.75;25.21
60240;BME280;46102;39.012;-7.064;2022-08-19T01:08:02;98366.91;;;24.76;24.83
60240;BME280;46102;39.012;-7.064;2022-08-19T01:10:06;98368.84;;;24.82;25.20
60240;BME280;46102;39.012;-7.064;2022-08-19T01:12:08;98379.28;;;24.82;25.04
60240;BME280;46102;39.012;-7.064;2022-08-19T01:14:10;98372.56;;;24.72;25.39
60240;BME280;46102;39.012;-7.064;2022-08-19T01:16:13;98379.00;;;24.69;25.33
60240;BME280;46102;39.012;-7.064;2022-08-19T01:18:16;98372.63;;;24.68;25.13
60240;BME280;46102;39.012;-7.064;2022-08-19T01:20:20;98376.66;;;24.64;25.39
60240;BME280;46102;39.012;-7.064;2022-08-19T01:24:22;98373.09;;;24.60;25.30
60240;BME280;46102;39.012;-7.064;2022-08-19T01:26:24;98371.09;;;24.60;25.68
60240;BME280;46102;39.012;-7.064;2022-08-19T01:28:27;98370.66;;;24.62;25.50
60240;BME280;46102;39.012;-7.064;2022-08-19T01:30:31;98379.09;;;24.58;25.52
60240;BME280;46102;39.012;-7.064;2022-08-19T01:32:32;98374.75;;;24.54;25.60
60240;BME280;46102;39.012;-7.064;2022-08-19T01:34:33;98390.75;;;24.57;25.60
60240;BME280;46102;39.012;-7.064;2022-08-19T01:36:43;98379.19;;;24.51;25.81
60240;BME280;46102;39.012;-7.064;2022-08-19T01:38:48;98389.56;;;24.54;25.69
60240;BME280;46102;39.012;-7.064;2022-08-19T01:40:49;98382.78;;;24.51;25.58
60240;BME280;46102;39.012;-7.064;2022-08-19T01:42:52;98376.75;;;24.53;25.98
60240;BME280;46102;39.012;-7.064;2022-08-19T01:44:53;98380.75;;;24.56;25.77
60240;BME280;46102;39.012;-7.064;2022-08-19T01:46:53;98386.41;;;24.48;26.15
60240;BME280;46102;39.012;-7.064;2022-08-19T01:48:54;98378.38;;;24.47;25.87
60240;BME280;46102;39.012;-7.064;2022-08-19T01:50:55;98385.63;;;24.44;26.13
60240;BME280;46102;39.012;-7.064;2022-08-19T01:52:56;98378.81;;;24.45;26.07
60240;BME280;46102;39.012;-7.064;2022-08-19T01:54:57;98380.41;;;24.43;26.14
60240;BME280;46102;39.012;-7.064;2022-08-19T01:57:04;98380.03;;;24.41;26.30
60240;BME280;46102;39.012;-7.064;2022-08-19T01:59:10;98378.00;;;24.45;26.36
60240;BME280;46102;39.012;-7.064;2022-08-19T02:01:13;98376.81;;;24.42;26.19
60240;BME280;46102;39.012;-7.064;2022-08-19T02:03:14;98377.59;;;24.46;26.30
60240;BME280;46102;39.012;-7.064;2022-08-19T02:05:16;98373.63;;;24.40;26.22
60240;BME280;46102;39.012;-7.064;2022-08-19T02:07:20;98372.88;;;24.36;26.28
60240;BME280;46102;39.012;-7.064;2022-08-19T02:09:22;98372.09;;;24.36;26.45
60240;BME280;46102;39.012;-7.064;2022-08-19T02:11:27;98375.66;;;24.36;26.26
60240;BME280;46102;39.012;-7.064;2022-08-19T02:13:28;98376.91;;;24.31;26.42
60240;BME280;46102;39.012;-7.064;2022-08-19T02:15:29;98372.09;;;24.36;26.38
60240;BME280;46102;39.012;-7.064;2022-08-19T02:17:30;98364.91;;;24.31;26.40
60240;BME280;46102;39.012;-7.064;2022-08-19T02:19:31;98368.91;;;24.34;26.35
60240;BME280;46102;39.012;-7.064;2022-08-19T02:21:35;98371.31;;;24.31;26.86
60240;BME280;46102;39.012;-7.064;2022-08-19T02:23:36;98367.78;;;24.24;26.56
60240;BME280;46102;39.012;-7.064;2022-08-19T02:25:38;98370.22;;;24.18;26.58
60240;BME280;46102;39.012;-7.064;2022-08-19T02:27:40;98368.72;;;24.10;27.03
60240;BME280;46102;39.012;-7.064;2022-08-19T02:29:41;98379.53;;;24.08;27.10
60240;BME280;46102;39.012;-7.064;2022-08-19T02:31:42;98380.31;;;24.12;27.03
60240;BME280;46102;39.012;-7.064;2022-08-19T02:33:43;98381.09;;;24.09;27.12
60240;BME280;46102;39.012;-7.064;2022-08-19T02:35:45;98373.91;;;24.08;27.29
60240;BME280;46102;39.012;-7.064;2022-08-19T02:37:46;98376.28;;;24.13;27.25
60240;BME280;46102;39.012;-7.064;2022-08-19T02:40:06;98378.31;;;24.09;27.20
60240;BME280;46102;39.012;-7.064;2022-08-19T02:42:07;98383.56;;;24.03;27.18
60240;BME280;46102;39.012;-7.064;2022-08-19T02:44:08;98376.78;;;24.01;27.54
60240;BME280;46102;39.012;-7.064;2022-08-19T02:46:15;98380.34;;;24.05;27.53
60240;BME280;46102;39.012;-7.064;2022-08-19T02:48:23;98382.38;;;24.01;27.39
60240;BME280;46102;39.012;-7.064;2022-08-19T02:50:23;98382.38;;;24.01;27.65
60240;BME280;46102;39.012;-7.064;2022-08-19T02:52:24;98380.03;;;23.92;27.63
60240;BME280;46102;39.012;-7.064;2022-08-19T02:54:25;98389.63;;;23.95;27.59
60240;BME280;46102;39.012;-7.064;2022-08-19T02:56:26;98389.63;;;23.95;27.69
60240;BME280;46102;39.012;-7.064;2022-08-19T02:58:27;98385.19;;;23.97;27.68
60240;BME280;46102;39.012;-7.064;2022-08-19T03:00:28;98382.47;;;23.90;27.77
60240;BME280;46102;39.012;-7.064;2022-08-19T03:02:29;98382.47;;;23.90;27.86
60240;BME280;46102;39.012;-7.064;2022-08-19T03:04:30;98383.69;;;23.82;28.00
60240;BME280;46102;39.012;-7.064;2022-08-19T03:06:31;98386.09;;;23.80;28.25
60240;BME280;46102;39.012;-7.064;2022-08-19T03:08:32;98384.13;;;23.80;28.04
60240;BME280;46102;39.012;-7.064;2022-08-19T03:10:40;98388.53;;;23.74;28.17
60240;BME280;46102;39.012;-7.064;2022-08-19T03:12:43;98389.72;;;23.80;28.26
60240;BME280;46102;39.012;-7.064;2022-08-19T03:14:43;98390.97;;;23.76;28.33
60240;BME280;46102;39.012;-7.064;2022-08-19T03:16:48;98392.53;;;23.73;28.25
60240;BME280;46102;39.012;-7.064;2022-08-19T03:18:50;98380.53;;;23.73;28.19
60240;BME280;46102;39.012;-7.064;2022-08-19T03:20:52;98390.16;;;23.68;28.38
60240;BME280;46102;39.012;-7.064;2022-08-19T03:22:56;98397.78;;;23.64;28.40
60240;BME280;46102;39.012;-7.064;2022-08-19T03:24:57;98388.63;;;23.60;28.57
60240;BME280;46102;39.012;-7.064;2022-08-19T03:26:58;98395.75;;;23.68;28.42
60240;BME280;46102;39.012;-7.064;2022-08-19T03:29:02;98396.59;;;23.65;28.66
60240;BME280;46102;39.012;-7.064;2022-08-19T03:31:06;98392.63;;;23.59;28.57
60240;BME280;46102;39.012;-7.064;2022-08-19T03:33:09;98394.22;;;23.56;28.83
60240;BME280;46102;39.012;-7.064;2022-08-19T03:35:10;98407.06;;;23.54;28.89
60240;BME280;46102;39.012;-7.064;2022-08-19T03:37:11;98399.88;;;23.45;28.89
60240;BME280;46102;39.012;-7.064;2022-08-19T03:39:13;98406.69;;;23.44;28.98
60240;BME280;46102;39.012;-7.064;2022-08-19T03:41:17;98402.28;;;23.43;29.02
60240;BME280;46102;39.012;-7.064;2022-08-19T03:43:18;98407.09;;;23.43;29.00
60240;BME280;46102;39.012;-7.064;2022-08-19T03:45:19;98407.09;;;23.46;29.16
60240;BME280;46102;39.012;-7.064;2022-08-19T03:47:20;98400.66;;;23.46;29.07
60240;BME280;46102;39.012;-7.064;2022-08-19T03:49:22;98408.31;;;23.38;29.32
60240;BME280;46102;39.012;-7.064;2022-08-19T03:51:29;98409.09;;;23.39;29.22
60240;BME280;46102;39.012;-7.064;2022-08-19T03:53:32;98414.69;;;23.39;29.26
60240;BME280;46102;39.012;-7.064;2022-08-19T03:55:33;98423.09;;;23.39;29.23
60240;BME280;46102;39.012;-7.064;2022-08-19T03:57:34;98420.72;;;23.34;29.30
60240;BME280;46102;39.012;-7.064;2022-08-19T03:59:36;98421.91;;;23.33;29.35
60240;BME280;46102;39.012;-7.064;2022-08-19T04:01:37;98416.72;;;23.38;29.28
60240;BME280;46102;39.012;-7.064;2022-08-19T04:03:38;98419.50;;;23.35;29.35
60240;BME280;46102;39.012;-7.064;2022-08-19T04:05:39;98419.13;;;23.36;29.32
60240;BME280;46102;39.012;-7.064;2022-08-19T04:07:40;98417.53;;;23.32;29.41
60240;BME280;46102;39.012;-7.064;2022-08-19T04:09:41;98421.13;;;23.36;29.42
60240;BME280;46102;39.012;-7.064;2022-08-19T04:11:48;98422.31;;;23.35;29.47
60240;BME280;46102;39.012;-7.064;2022-08-19T04:13:52;98423.13;;;23.32;29.57
60240;BME280;46102;39.012;-7.064;2022-08-19T04:15:53;98426.34;;;23.23;29.63
60240;BME280;46102;39.012;-7.064;2022-08-19T04:17:54;98415.97;;;23.27;29.70
60240;BME280;46102;39.012;-7.064;2022-08-19T04:19:55;98431.16;;;23.26;29.70
60240;BME280;46102;39.012;-7.064;2022-08-19T04:21:55;98421.94;;;23.25;29.63
60240;BME280;46102;39.012;-7.064;2022-08-19T04:23:57;98431.16;;;23.22;29.73
60240;BME280;46102;39.012;-7.064;2022-08-19T04:25:58;98433.97;;;23.19;29.69
60240;BME280;46102;39.012;-7.064;2022-08-19T04:27:58;98434.00;;;23.15;30.02
60240;BME280;46102;39.012;-7.064;2022-08-19T04:29:59;98434.78;;;23.16;29.73
60240;BME280;46102;39.012;-7.064;2022-08-19T04:32:00;98441.97;;;23.17;29.86
60240;BME280;46102;39.012;-7.064;2022-08-19T04:34:04;98434.38;;;23.17;30.01
60240;BME280;46102;39.012;-7.064;2022-08-19T04:36:05;98438.00;;;23.11;29.88
60240;BME280;46102;39.012;-7.064;2022-08-19T04:38:07;98441.63;;;23.04;30.24
60240;BME280;46102;39.012;-7.064;2022-08-19T04:40:08;98436.41;;;23.06;30.06
60240;BME280;46102;39.012;-7.064;2022-08-19T04:42:28;98438.38;;;22.98;30.24
60240;BME280;46102;39.012;-7.064;2022-08-19T04:44:41;98428.00;;;22.99;30.26
60240;BME280;46102;39.012;-7.064;2022-08-19T04:46:41;98440.78;;;22.96;30.24
60240;BME280;46102;39.012;-7.064;2022-08-19T04:48:42;98432.78;;;22.98;30.15
60240;BME280;46102;39.012;-7.064;2022-08-19T04:50:44;98442.41;;;22.97;30.08
60240;BME280;46102;39.012;-7.064;2022-08-19T04:52:45;98441.59;;;22.90;30.27
60240;BME280;46102;39.012;-7.064;2022-08-19T04:54:45;98445.63;;;22.92;30.27
60240;BME280;46102;39.012;-7.064;2022-08-19T04:56:46;98449.59;;;22.87;30.37
60240;BME280;46102;39.012;-7.064;2022-08-19T04:58:49;98442.81;;;22.89;30.31
60240;BME280;46102;39.012;-7.064;2022-08-19T05:00:53;98449.59;;;22.91;30.02
60240;BME280;46102;39.012;-7.064;2022-08-19T05:02:54;98445.22;;;22.90;30.00
60240;BME280;46102;39.012;-7.064;2022-08-19T05:04:58;98442.78;;;22.96;30.00
60240;BME280;46102;39.012;-7.064;2022-08-19T05:07:00;98440.81;;;22.89;29.99
60240;BME280;46102;39.012;-7.064;2022-08-19T05:09:04;98442.41;;;22.94;29.95
60240;BME280;46102;39.012;-7.064;2022-08-19T05:11:14;98445.63;;;22.99;29.86
60240;BME280;46102;39.012;-7.064;2022-08-19T05:13:17;98449.19;;;22.96;29.84
60240;BME280;46102;39.012;-7.064;2022-08-19T05:15:18;98457.97;;;22.91;29.94
60240;BME280;46102;39.012;-7.064;2022-08-19T05:17:19;98460.38;;;22.89;30.04
60240;BME280;46102;39.012;-7.064;2022-08-19T05:19:20;98452.78;;;22.90;29.96
60240;BME280;46102;39.012;-7.064;2022-08-19T05:21:41;98450.00;;;22.93;29.93
60240;BME280;46102;39.012;-7.064;2022-08-19T05:24:06;98459.19;;;22.90;30.04
60240;BME280;46102;39.012;-7.064;2022-08-19T05:26:10;98460.78;;;22.87;29.92
60240;BME280;46102;39.012;-7.064;2022-08-19T05:28:11;98456.81;;;22.78;30.08
60240;BME280;46102;39.012;-7.064;2022-08-19T05:30:12;98460.78;;;22.70;30.45
60240;BME280;46102;39.012;-7.064;2022-08-19T05:32:13;98463.22;;;22.75;30.60
60240;BME280;46102;39.012;-7.064;2022-08-19T05:34:14;98466.00;;;22.71;30.61
60240;BME280;46102;39.012;-7.064;2022-08-19T05:36:15;98465.63;;;22.65;30.66
60240;BME280;46102;39.012;-7.064;2022-08-19T05:38:17;98471.59;;;22.64;30.96
60240;BME280;46102;39.012;-7.064;2022-08-19T05:40:18;98481.19;;;22.59;30.92
60240;BME280;46102;39.012;-7.064;2022-08-19T05:42:19;98473.19;;;22.51;30.87
60240;BME280;46102;39.012;-7.064;2022-08-19T05:44:20;98476.41;;;22.45;30.92
60240;BME280;46102;39.012;-7.064;2022-08-19T05:46:22;98472.00;;;22.48;31.05
60240;BME280;46102;39.012;-7.064;2022-08-19T05:48:23;98475.97;;;22.47;31.17
60240;BME280;46102;39.012;-7.064;2022-08-19T05:50:25;98473.59;;;22.45;31.35
60240;BME280;46102;39.012;-7.064;2022-08-19T05:52:28;98477.56;;;22.44;31.33
60240;BME280;46102;39.012;-7.064;2022-08-19T05:54:30;98480.78;;;22.43;31.49
60240;BME280;46102;39.012;-7.064;2022-08-19T05:56:31;98475.59;;;22.41;31.43
60240;BME280;46102;39.012;-7.064;2022-08-19T05:58:33;98479.19;;;22.42;31.44
60240;BME280;46102;39.012;-7.064;2022-08-19T06:00:35;98477.97;;;22.32;31.67
60240;BME280;46102;39.012;-7.064;2022-08-19T06:02:38;98486.34;;;22.36;31.40
60240;BME280;46102;39.012;-7.064;2022-08-19T06:04:39;98481.19;;;22.34;31.33
60240;BME280;46102;39.012;-7.064;2022-08-19T06:06:43;98495.16;;;22.34;31.27
60240;BME280;46102;39.012;-7.064;2022-08-19T06:08:43;98495.53;;;22.40;31.30
60240;BME280;46102;39.012;-7.064;2022-08-19T06:10:51;98499.16;;;22.40;31.12
60240;BME280;46102;39.012;-7.064;2022-08-19T06:12:52;98498.75;;;22.42;31.04
60240;BME280;46102;39.012;-7.064;2022-08-19T06:14:53;98501.94;;;22.48;31.28
60240;BME280;46102;39.012;-7.064;2022-08-19T06:16:56;98511.13;;;22.55;31.38
60240;BME280;46102;39.012;-7.064;2022-08-19T06:18:59;98519.09;;;22.53;31.15
60240;BME280;46102;39.012;-7.064;2022-08-19T06:21:00;98502.75;;;22.55;31.09
60240;BME280;46102;39.012;-7.064;2022-08-19T06:23:04;98513.13;;;22.51;31.19
60240;BME280;46102;39.012;-7.064;2022-08-19T06:25:06;98516.31;;;22.57;31.26
60240;BME280;46102;39.012;-7.064;2022-08-19T06:27:07;98517.53;;;22.59;31.06
60240;BME280;46102;39.012;-7.064;2022-08-19T06:29:09;98518.31;;;22.67;31.17
60240;BME280;46102;39.012;-7.064;2022-08-19T06:31:10;98519.13;;;22.75;30.92
60240;BME280;46102;39.012;-7.064;2022-08-19T06:33:14;98526.31;;;22.79;30.72
60240;BME280;46102;39.012;-7.064;2022-08-19T06:35:15;98520.31;;;22.88;30.64
60240;BME280;46102;39.012;-7.064;2022-08-19T06:37:16;98529.91;;;22.91;30.65
60240;BME280;46102;39.012;-7.064;2022-08-19T06:39:21;98533.50;;;22.91;30.78
60240;BME280;46102;39.012;-7.064;2022-08-19T06:41:22;98530.69;;;22.98;30.50
60240;BME280;46102;39.012;-7.064;2022-08-19T06:43:23;98535.91;;;23.07;30.56
60240;BME280;46102;39.012;-7.064;2022-08-19T06:45:24;98537.47;;;23.19;30.33
60240;BME280;46102;39.012;-7.064;2022-08-19T06:47:24;98533.88;;;23.18;30.44
60240;BME280;46102;39.012;-7.064;2022-08-19T06:49:25;98537.84;;;23.28;30.33
60240;BME280;46102;39.012;-7.064;2022-08-19T06:51:28;98539.44;;;23.33;30.33
60240;BME280;46102;39.012;-7.064;2022-08-19T06:53:29;98535.03;;;23.46;29.98
60240;BME280;46102;39.012;-7.064;2022-08-19T06:55:30;98539.81;;;23.60;29.63
60240;BME280;46102;39.012;-7.064;2022-08-19T06:57:31;98541.38;;;23.64;29.71
60240;BME280;46102;39.012;-7.064;2022-08-19T06:59:33;98545.34;;;23.81;29.38
60240;BME280;46102;39.012;-7.064;2022-08-19T07:01:35;98543.28;;;23.96;29.22
60240;BME280;46102;39.012;-7.064;2022-08-19T07:03:38;98537.59;;;24.10;29.45
60240;BME280;46102;39.012;-7.064;2022-08-19T07:05:41;98544.31;;;24.27;29.07
60240;BME280;46102;39.012;-7.064;2022-08-19T07:07:42;98545.81;;;24.43;29.06
60240;BME280;46102;39.012;-7.064;2022-08-19T07:09:44;98542.56;;;24.55;28.89
60240;BME280;46102;39.012;-7.064;2022-08-19T07:11:48;98537.69;;;24.66;28.27
60240;BME280;46102;39.012;-7.064;2022-08-19T07:13:50;98540.75;;;24.83;27.85
60240;BME280;46102;39.012;-7.064;2022-08-19T07:15:51;98541.00;;;24.99;27.67
60240;BME280;46102;39.012;-7.064;2022-08-19T07:17:52;98545.66;;;25.17;27.58
60240;BME280;46102;39.012;-7.064;2022-08-19T07:19:53;98537.94;;;25.28;27.66
60240;BME280;46102;39.012;-7.064;2022-08-19T07:21:54;98538.63;;;25.43;27.14
60240;BME280;46102;39.012;-7.064;2022-08-19T07:23:56;98543.69;;;25.55;27.35
60240;BME280;46102;39.012;-7.064;2022-08-19T07:26:07;98543.09;;;25.71;26.86
60240;BME280;46102;39.012;-7.064;2022-08-19T07:28:08;98542.50;;;25.87;26.51
60240;BME280;46102;39.012;-7.064;2022-08-19T07:30:10;98539.56;;;26.01;26.47
60240;BME280;46102;39.012;-7.064;2022-08-19T07:32:12;98548.13;;;26.21;26.19
60240;BME280;46102;39.012;-7.064;2022-08-19T07:34:13;98549.06;;;26.38;26.03
60240;BME280;46102;39.012;-7.064;2022-08-19T07:36:17;98554.59;;;26.45;25.85
60240;BME280;46102;39.012;-7.064;2022-08-19T07:38:18;98547.63;;;26.57;25.72
60240;BME280;46102;39.012;-7.064;2022-08-19T07:40:19;98557.88;;;26.71;25.61
60240;BME280;46102;39.012;-7.064;2022-08-19T07:42:20;98555.97;;;26.88;25.64
60240;BME280;46102;39.012;-7.064;2022-08-19T07:44:21;98555.75;;;27.02;25.23
60240;BME280;46102;39.012;-7.064;2022-08-19T07:46:23;98559.59;;;27.12;24.46
60240;BME280;46102;39.012;-7.064;2022-08-19T07:48:25;98563.69;;;27.07;24.48
60240;BME280;46102;39.012;-7.064;2022-08-19T07:50:26;98558.31;;;27.16;24.80
60240;BME280;46102;39.012;-7.064;2022-08-19T07:52:26;98563.22;;;27.36;24.24
60240;BME280;46102;39.012;-7.064;2022-08-19T07:54:30;98561.81;;;27.48;24.08
60240;BME280;46102;39.012;-7.064;2022-08-19T07:56:31;98554.44;;;27.54;24.11
60240;BME280;46102;39.012;-7.064;2022-08-19T07:58:35;98559.94;;;27.61;23.96
60240;BME280;46102;39.012;-7.064;2022-08-19T08:00:37;98561.81;;;27.68;23.70
60240;BME280;46102;39.012;-7.064;2022-08-19T08:02:38;98563.50;;;27.85;23.78
60240;BME280;46102;39.012;-7.064;2022-08-19T08:04:39;98566.81;;;28.00;23.62
60240;BME280;46102;39.012;-7.064;2022-08-19T08:06:58;98565.28;;;28.15;23.35
60240;BME280;46102;39.012;-7.064;2022-08-19T08:09:23;98560.47;;;28.32;23.24
60240;BME280;46102;39.012;-7.064;2022-08-19T08:11:24;98567.91;;;28.42;22.87
60240;BME280;46102;39.012;-7.064;2022-08-19T08:13:26;98571.03;;;28.48;22.94
60240;BME280;46102;39.012;-7.064;2022-08-19T08:15:27;98573.72;;;28.55;22.65
60240;BME280;46102;39.012;-7.064;2022-08-19T08:17:28;98566.22;;;28.65;22.51
60240;BME280;46102;39.012;-7.064;2022-08-19T08:19:29;98573.97;;;28.77;22.43
60240;BME280;46102;39.012;-7.064;2022-08-19T08:21:31;98576.81;;;28.77;22.01
60240;BME280;46102;39.012;-7.064;2022-08-19T08:23:32;98574.63;;;28.85;22.13
60240;BME280;46102;39.012;-7.064;2022-08-19T08:25:33;98574.88;;;29.07;22.33
60240;BME280;46102;39.012;-7.064;2022-08-19T08:27:37;98574.34;;;29.29;22.05
60240;BME280;46102;39.012;-7.064;2022-08-19T08:29:39;98573.09;;;29.46;21.57
60240;BME280;46102;39.012;-7.064;2022-08-19T08:31:43;98564.69;;;29.59;21.68
60240;BME280;46102;39.012;-7.064;2022-08-19T08:33:45;98564.00;;;29.67;21.47
60240;BME280;46102;39.012;-7.064;2022-08-19T08:35:46;98565.00;;;29.61;21.09
60240;BME280;46102;39.012;-7.064;2022-08-19T08:37:48;98572.34;;;29.58;21.03
60240;BME280;46102;39.012;-7.064;2022-08-19T08:39:50;98564.00;;;29.67;21.29
60240;BME280;46102;39.012;-7.064;2022-08-19T08:44:18;98568.75;;;29.87;21.12
60240;BME280;46102;39.012;-7.064;2022-08-19T08:46:22;98562.25;;;30.03;20.97
60240;BME280;46102;39.012;-7.064;2022-08-19T08:50:47;98566.41;;;30.53;20.58
60240;BME280;46102;39.012;-7.064;2022-08-19T08:52:55;98554.06;;;30.60;19.87
60240;BME280;46102;39.012;-7.064;2022-08-19T08:54:59;98566.53;;;30.49;19.69
60240;BME280;46102;39.012;-7.064;2022-08-19T08:56:59;98558.94;;;30.59;19.83
60240;BME280;46102;39.012;-7.064;2022-08-19T08:59:12;98560.41;;;30.77;19.75
60240;BME280;46102;39.012;-7.064;2022-08-19T09:01:17;98548.63;;;31.04;19.52
60240;BME280;46102;39.012;-7.064;2022-08-19T09:03:21;98557.88;;;31.17;19.67
60240;BME280;46102;39.012;-7.064;2022-08-19T09:05:30;98552.38;;;31.36;19.59
60240;BME280;46102;39.012;-7.064;2022-08-19T09:09:48;98563.97;;;31.63;18.83
60240;BME280;46102;39.012;-7.064;2022-08-19T09:16:31;98559.13;;;32.08;18.59
60240;BME280;46102;39.012;-7.064;2022-08-19T09:18:46;98561.47;;;32.31;18.42
60240;BME280;46102;39.012;-7.064;2022-08-19T09:20:52;98551.34;;;32.52;18.03
60240;BME280;46102;39.012;-7.064;2022-08-19T09:22:53;98558.38;;;32.70;18.10
60240;BME280;46102;39.012;-7.064;2022-08-19T09:24:55;98551.59;;;32.76;17.56
60240;BME280;46102;39.012;-7.064;2022-08-19T09:26:56;98555.91;;;32.90;17.81
60240;BME280;46102;39.012;-7.064;2022-08-19T09:28:56;98553.41;;;33.02;17.68
60240;BME280;46102;39.012;-7.064;2022-08-19T09:30:58;98553.91;;;33.09;17.37
60240;BME280;46102;39.012;-7.064;2022-08-19T09:32:59;98553.16;;;33.18;17.45
60240;BME280;46102;39.012;-7.064;2022-08-19T09:35:01;98555.53;;;33.20;17.44
60240;BME280;46102;39.012;-7.064;2022-08-19T09:37:02;98557.22;;;33.08;17.33
60240;BME280;46102;39.012;-7.064;2022-08-19T09:39:04;98552.13;;;33.03;17.03
60240;BME280;46102;39.012;-7.064;2022-08-19T09:41:08;98560.19;;;33.04;17.26
60240;BME280;46102;39.012;-7.064;2022-08-19T09:43:09;98551.91;;;33.28;16.66
60240;BME280;46102;39.012;-7.064;2022-08-19T09:45:10;98558.84;;;33.55;17.12
60240;BME280;46102;39.012;-7.064;2022-08-19T09:47:12;98548.13;;;33.77;16.74
60240;BME280;46102;39.012;-7.064;2022-08-19T09:49:14;98550.16;;;33.95;16.14
60240;BME280;46102;39.012;-7.064;2022-08-19T09:51:18;98551.72;;;34.06;15.94
60240;BME280;46102;39.012;-7.064;2022-08-19T09:53:20;98548.72;;;34.18;15.71
60240;BME280;46102;39.012;-7.064;2022-08-19T09:55:23;98560.72;;;34.22;16.11
60240;BME280;46102;39.012;-7.064;2022-08-19T09:57:24;98547.91;;;34.27;15.55
60240;BME280;46102;39.012;-7.064;2022-08-19T09:59:24;98559.72;;;34.44;15.55
60240;BME280;46102;39.012;-7.064;2022-08-19T10:01:27;98550.69;;;34.46;15.62
60240;BME280;46102;39.012;-7.064;2022-08-19T10:03:29;98554.59;;;34.67;15.98
60240;BME280;46102;39.012;-7.064;2022-08-19T10:05:30;98555.84;;;34.56;14.98
60240;BME280;46102;39.012;-7.064;2022-08-19T10:07:49;98555.09;;;34.47;15.75
60240;BME280;46102;39.012;-7.064;2022-08-19T10:09:50;98552.22;;;34.65;15.30
60240;BME280;46102;39.012;-7.064;2022-08-19T10:11:51;98553.72;;;34.85;15.62
60240;BME280;46102;39.012;-7.064;2022-08-19T10:13:52;98550.19;;;34.90;15.40
60240;BME280;46102;39.012;-7.064;2022-08-19T10:15:55;98560.69;;;35.08;15.10
60240;BME280;46102;39.012;-7.064;2022-08-19T10:17:56;98553.19;;;35.19;14.92
60240;BME280;46102;39.012;-7.064;2022-08-19T10:19:57;98544.88;;;35.31;15.17
60240;BME280;46102;39.012;-7.064;2022-08-19T10:21:58;98555.47;;;35.15;15.08
60240;BME280;46102;39.012;-7.064;2022-08-19T10:24:00;98548.72;;;35.28;14.79
60240;BME280;46102;39.012;-7.064;2022-08-19T10:26:05;98549.19;;;35.26;14.63
60240;BME280;46102;39.012;-7.064;2022-08-19T10:28:07;98552.03;;;35.50;14.56
60240;BME280;46102;39.012;-7.064;2022-08-19T10:30:08;98558.44;;;35.60;14.39
60240;BME280;46102;39.012;-7.064;2022-08-19T10:32:10;98554.31;;;35.61;14.25
60240;BME280;46102;39.012;-7.064;2022-08-19T10:34:10;98553.06;;;35.62;14.10
60240;BME280;46102;39.012;-7.064;2022-08-19T10:36:20;98556.56;;;35.57;14.00
60240;BME280;46102;39.012;-7.064;2022-08-19T10:38:23;98547.19;;;35.65;14.21
60240;BME280;46102;39.012;-7.064;2022-08-19T10:40:25;98555.16;;;35.76;14.10
60240;BME280;46102;39.012;-7.064;2022-08-19T10:42:26;98548.59;;;35.85;13.92
60240;BME280;46102;39.012;-7.064;2022-08-19T10:44:26;98559.53;;;36.01;13.99
60240;BME280;46102;39.012;-7.064;2022-08-19T10:46:31;98555.06;;;36.00;13.67
60240;BME280;46102;39.012;-7.064;2022-08-19T10:48:33;98547.22;;;35.80;13.97
60240;BME280;46102;39.012;-7.064;2022-08-19T10:50:36;98540.25;;;35.96;13.85
60240;BME280;46102;39.012;-7.064;2022-08-19T10:52:55;98548.41;;;36.33;13.77
60240;BME280;46102;39.012;-7.064;2022-08-19T10:54:56;98541.63;;;36.60;13.60